x

Seal Rocks - Between Montague And Hinchinbrook Islands, Ak (46061) Wave Buoy

2:50pm - Wed 30th Jul 2014 All times are AKDT. -8 hours from GMT.

  • Sig Wave height 2.6ft
  • Swell Direction
  • Peak Period 5s
  • Average Period 5s
  • Wind
    13mph, 16mph gusts
  • Sea Temp 59°f
  • Air Temp 58°f
  • Sea Pressure 1024.1mb
  • Seal Rocks - Between Montague And Hinchinbrook Islands, Ak
  • Seal Rocks - Between Montague And Hinchinbrook Islands, Ak

More Historic Weather Station data

Upgrade to MSW Pro to gain access to the past 30 days of data for over 8000 Wavebouys and Weather Stations around the globe.

Join Pro

Comparision Forecast

View Surf forecast
   
Wed 07/30 2:50pm 2.5ft 5s 5s 13 16 mph 1024.1mb 59f 58f
1:50pm 3ft 6s 5s 9 11 mph 1023.8mb 59f 59f
12:50pm 3ft 6s 5s 11 13 mph 1023.4mb 59f 59f
11:50am 2.5ft 6s 5s 11 16 mph 1022.8mb 59f 59f
10:50am 2.5ft 6s 5s 9 11 mph 1022.2mb 59f 58f
9:50am 2ft 6s 6s 9 11 mph 1021.6mb 59f 59f
8:50am 1.6ft 6s 5s 9
mph
1020.9mb 59f 57f
7:50am 1.3ft 14s 5s 7 9 mph 1020.4mb 58f 57f
6:50am 1.6ft 6s 6s 7
mph
1019.7mb 59f 56f
5:50am 1.6ft 7s 6s 9 11 mph 1019.5mb 59f 56f
4:50am 1.3ft 15s 6s 11
mph
1018.9mb 59f 56f
3:50am 1.6ft 15s 6s 9
mph
1018.5mb 59f 56f
2:50am 1.6ft 6s 5s 2 4 mph 1018.4mb 58f 56f
1:50am 1.6ft 15s 5s 9 11 mph 1018.1mb 58f 56f
12:50am 1.3ft 5s 4s 7 9 mph 1017.9mb 59f 55f
Tue 07/29 11:50pm 1.6ft 5s 4s 9
mph
1017.3mb 59f 55f
10:50pm 1.6ft 6s 5s 13 16 mph 1017.1mb 59f 56f
9:50pm 1.6ft 6s 4s 13 16 mph 1016.2mb 59f 56f
8:50pm 1.3ft 6s 5s 13 16 mph 1015.6mb 59f 57f
7:50pm 1.3ft 15s 5s 13
mph
1015.5mb 59f 58f
6:50pm 1ft 15s 6s 11
mph
1015.3mb 60f 58f
5:50pm 1ft 6s 6s 13
mph
1015mb 59f 58f
4:50pm 1ft 16s 6s 13
mph
1014.7mb 59f 58f
3:50pm 1.3ft 16s 5s 11 13 mph 1014.4mb 59f 58f
2:50pm 1.3ft 16s 4s 16 18 mph 1014.2mb 59f 58f
1:50pm 1ft 16s 6s 13 16 mph 1014mb 59f 58f
12:50pm 1ft 16s 6s 9 11 mph 1014.1mb 59f 58f
11:50am 1ft 16s 6s 7
mph
1014mb 58f 58f
10:50am 1ft 14s 6s 7
mph
1013.9mb 58f 58f
9:50am 1ft 14s 6s 7 9 mph 1013.7mb 58f 58f
8:50am 1ft 15s 7s 11
mph
1013.4mb 58f 57f
7:50am 1ft 16s 7s 13 16 mph 1013mb 58f 57f
6:50am 1ft 15s 6s 13 16 mph 1012.8mb 58f 57f
5:50am 1ft 16s 4s 11
mph
1012.8mb 58f 57f
4:50am 1ft 16s 5s 13
mph
1012.6mb 58f 58f
3:50am 1ft 16s 5s 9 11 mph 1012.7mb 58f 58f
2:50am 1ft 15s 6s 9 11 mph 1012.9mb 58f 59f
1:50am 1ft 16s 5s 9
mph
1013.3mb 58f 58f
12:50am 1.3ft 5s 5s 2 4 mph 1013.6mb 58f 57f
Mon 07/28 11:50pm 1.3ft 15s 6s  -  mph 1014.1mb 58f 57f
10:50pm 1ft 16s 6s 2
mph
1014.5mb 58f 58f
9:50pm 1ft 6s 5s 4 7 mph 1014.6mb 58f 58f
8:50pm 1.3ft 6s 6s 7
mph
1014.9mb 59f 58f
7:50pm 1.3ft 15s 6s 9
mph
1015mb 59f 58f
6:50pm 1.3ft 7s 5s 9
mph
1015.6mb 59f 58f
5:50pm 1.3ft 6s 5s 7 9 mph 1016.1mb 59f 58f
4:50pm 1.3ft 6s 5s 7 9 mph 1016.3mb 59f 58f
3:50pm 1.6ft 6s 5s 7
mph
1016.8mb 59f 58f
2:50pm 1.6ft 6s 5s 4 7 mph 1017.2mb 59f 58f
1:50pm 2ft 5s 5s 2 4 mph 1017.5mb 59f 58f
12:50pm 2ft 6s 5s  -  2 mph 1018mb 60f 59f
11:50am 2.5ft 5s 5s  -  2 mph 1018.4mb 59f 59f
10:50am 2.5ft 5s 5s  -  2 mph 1018.7mb 59f 58f
9:50am 2.5ft 6s 5s 2
mph
1018.9mb 58f 57f
8:50am 2.5ft 6s 5s 2
mph
1019.1mb 58f 58f
7:50am 2.5ft 7s 5s 2
mph
1019.2mb 58f 58f
6:50am 2.5ft 7s 5s 4 7 mph 1019.4mb 58f 57f
5:50am 3.5ft 7s 6s 9 11 mph 1019.1mb 58f 57f
4:50am 2.5ft 7s 6s 11 16 mph 1018.8mb 58f 57f
3:50am 3.5ft 7s 6s 16 18 mph 1018.7mb 58f 58f
2:50am 3.5ft 7s 6s 18 20 mph 1018.6mb 58f 58f
1:50am 3.5ft 7s 6s 20 22 mph 1018.4mb 58f 58f
12:50am 4ft 7s 6s 22 27 mph 1018.1mb 58f 58f
Sun 07/27 11:50pm 3.5ft 7s 5s 20 25 mph 1017.9mb 58f 58f
10:50pm 4ft 7s 5s 20 27 mph 1017.8mb 58f 58f
9:50pm 4.5ft 7s 5s 20 25 mph 1017.5mb 58f 57f
8:50pm 4.5ft 7s 5s 20 34 mph 1017mb 58f 58f
7:50pm 4.5ft 7s 5s 22 27 mph 1016.2mb 58f 58f
6:50pm 4ft 7s 5s 25 31 mph 1015.5mb 58f 57f
5:50pm 4.5ft 6s 5s 27 31 mph 1014.9mb 58f 56f
4:50pm 4ft 7s 5s 20 25 mph 1014.7mb 58f 57f
3:50pm 4ft 6s 5s 22 27 mph 1014.4mb 58f 56f
2:50pm 4ft 6s 4s 25 27 mph 1013.6mb 58f 57f
1:50pm 3ft 5s 5s 22 27 mph 1013mb 58f 57f
12:50pm 3ft 8s 5s 22 27 mph 1012.7mb 58f 56f
11:50am 3.5ft 8s 5s 11 16 mph 1012.5mb 58f 55f
10:50am 3.5ft 8s 5s 18 20 mph 1012.2mb 58f 56f
9:50am 3.5ft 8s 5s 9 13 mph 1012.2mb 58f 55f
8:50am 4.5ft 7s 5s 13 16 mph 1011.8mb 58f 55f
7:50am 3.5ft 8s 6s 13 16 mph 1011.6mb 58f 55f
6:50am 3ft 8s 6s 11 13 mph 1011.5mb 58f 54f
5:50am 2.5ft 8s 7s 9 11 mph 1011.5mb 58f 55f
4:50am 3.5ft 8s 7s 7 9 mph 1011.4mb 58f 55f
3:50am 3.5ft 8s 7s 7 9 mph 1011.3mb 59f 56f
2:50am 3ft 7s 6s 9 11 mph 1011.2mb 58f 57f
1:50am 2ft 7s 6s 2 4 mph 1011.3mb 58f 58f
12:50am 2ft 7s 6s 4 7 mph 1011.4mb 59f 58f
Sat 07/26 11:50pm 1.6ft 5s 6s 2 4 mph 1011.7mb 59f 58f